createdAt,value
2019-02-26T00:01:07.442Z,102543.92
2019-02-26T00:03:37.007Z,102547.41
2019-02-26T00:06:06.556Z,102547.81
2019-02-26T00:08:36.152Z,102547.01
2019-02-26T00:11:07.954Z,102552.53
2019-02-26T00:13:37.141Z,102547.48
2019-02-26T00:16:07.951Z,102553.17
2019-02-26T00:18:38.397Z,102546.42
2019-02-26T00:21:07.975Z,102540.64
2019-02-26T00:23:37.632Z,102526.59
2019-02-26T00:26:10.471Z,102523.81
2019-02-26T00:28:39.153Z,102507.51
2019-02-26T00:31:09.967Z,102504.73
2019-02-26T00:33:39.564Z,102513.83
2019-02-26T00:36:11.124Z,102503.50
2019-02-26T00:38:42.233Z,102498.36
2019-02-26T00:41:11.744Z,102513.22
2019-02-26T00:43:41.299Z,102512.95
2019-02-26T00:46:11.223Z,102518.23
2019-02-26T00:48:43.047Z,102510.39
2019-02-26T00:51:12.050Z,102518.81
2019-02-26T00:53:41.629Z,102515.58
2019-02-26T00:56:11.259Z,102513.52
2019-02-26T00:58:41.534Z,102526.22
2019-02-26T01:01:12.967Z,102523.38
2019-02-26T01:03:45.247Z,102527.89
2019-02-26T01:06:14.653Z,102531.61
2019-02-26T01:08:45.355Z,102524.13
2019-02-26T01:11:15.788Z,102529.88
2019-02-26T01:13:45.348Z,102525.72
2019-02-26T01:16:15.287Z,102529.63
2019-02-26T01:18:46.679Z,102534.27
2019-02-26T01:21:16.147Z,102544.05
2019-02-26T01:23:45.871Z,102533.50
2019-02-26T01:26:15.434Z,102538.87
2019-02-26T01:28:48.333Z,102537.91
2019-02-26T01:31:16.399Z,102516.94
2019-02-26T01:33:46.784Z,102521.23
2019-02-26T01:36:20.414Z,102515.95
2019-02-26T01:38:49.301Z,102509.25
2019-02-26T01:41:21.000Z,102507.47
2019-02-26T01:43:56.296Z,102506.56
2019-02-26T01:46:25.854Z,102498.51
2019-02-26T01:48:57.439Z,102500.45
2019-02-26T01:51:28.582Z,102499.19
2019-02-26T01:53:58.008Z,102496.26
2019-02-26T01:56:27.641Z,102500.18
2019-02-26T01:59:02.112Z,102506.07
2019-02-26T02:01:28.645Z,102502.58
2019-02-26T02:03:58.215Z,102500.20
2019-02-26T02:06:27.857Z,102499.46
2019-02-26T02:08:57.415Z,102502.76
2019-02-26T02:11:30.621Z,102500.53
2019-02-26T02:14:01.861Z,102501.14
2019-02-26T02:16:31.380Z,102501.91
2019-02-26T02:19:00.945Z,102493.54
2019-02-26T02:21:31.516Z,102493.34
2019-02-26T02:24:01.819Z,102487.52
2019-02-26T02:26:31.376Z,102492.01
2019-02-26T02:29:00.954Z,102496.99
2019-02-26T02:31:32.250Z,102494.52
2019-02-26T02:34:01.794Z,102504.32
2019-02-26T02:36:31.402Z,102494.96
2019-02-26T02:39:00.965Z,102492.17
2019-02-26T02:41:30.515Z,102479.72
2019-02-26T02:44:00.559Z,102472.34
2019-02-26T02:46:30.178Z,102469.97
2019-02-26T02:48:59.762Z,102473.26
2019-02-26T02:51:31.517Z,102482.56
2019-02-26T02:54:00.624Z,102482.47
2019-02-26T02:56:30.852Z,102496.41
2019-02-26T02:59:03.357Z,102502.34
2019-02-26T03:01:32.860Z,102511.70
2019-02-26T03:04:02.427Z,102506.81
2019-02-26T03:06:34.588Z,102502.78
2019-02-26T03:09:03.751Z,102490.42
2019-02-26T03:11:36.015Z,102491.22
2019-02-26T03:14:06.224Z,102499.39
2019-02-26T03:16:36.016Z,102503.57
2019-02-26T03:19:07.734Z,102495.98
2019-02-26T03:21:37.162Z,102486.92
2019-02-26T03:24:08.608Z,102487.23
2019-02-26T03:26:38.015Z,102471.09
2019-02-26T03:29:07.623Z,102469.11
2019-02-26T03:31:40.888Z,102469.25
2019-02-26T03:34:10.582Z,102478.62
2019-02-26T03:36:40.799Z,102468.86
2019-02-26T03:39:11.210Z,102467.17
2019-02-26T03:41:40.776Z,102464.98
2019-02-26T03:44:10.358Z,102466.77
2019-02-26T03:46:39.904Z,102464.58
2019-02-26T03:49:09.459Z,102465.68
2019-02-26T03:51:39.786Z,102469.56
2019-02-26T03:54:09.492Z,102473.64
2019-02-26T03:56:39.046Z,102476.03
2019-02-26T03:59:09.552Z,102478.02
2019-02-26T04:01:40.121Z,102483.14
2019-02-26T04:04:09.965Z,102480.44
2019-02-26T04:06:41.232Z,102476.66
2019-02-26T04:09:11.073Z,102471.06
2019-02-26T04:11:45.641Z,102465.39
2019-02-26T04:14:17.385Z,102467.80
2019-02-26T04:16:44.695Z,102472.67
2019-02-26T04:19:14.330Z,102472.36
2019-02-26T04:22:30.936Z,102471.16
2019-02-26T04:25:10.965Z,102471.16
2019-02-26T04:28:05.215Z,102471.06
2019-02-26T04:30:57.854Z,102460.11
2019-02-26T04:34:05.290Z,102458.33
2019-02-26T04:37:10.213Z,102450.77
2019-02-26T04:40:07.750Z,102465.62
2019-02-26T04:42:49.475Z,102449.42
2019-02-26T04:45:32.685Z,102447.94
2019-02-26T04:48:14.877Z,102442.26
2019-02-26T04:50:44.674Z,102446.14
2019-02-26T04:53:14.312Z,102436.28
2019-02-26T04:55:44.901Z,102438.07
2019-02-26T04:58:17.464Z,102444.64
2019-02-26T05:00:45.949Z,102442.14
2019-02-26T05:03:18.077Z,102441.65
2019-02-26T05:05:51.438Z,102437.02
2019-02-26T05:08:18.121Z,102444.40
2019-02-26T05:10:49.813Z,102450.66
2019-02-26T05:13:18.965Z,102444.08
2019-02-26T05:15:48.537Z,102443.37
2019-02-26T05:18:20.340Z,102445.80
2019-02-26T05:20:49.408Z,102446.58
2019-02-26T05:23:20.607Z,102451.37
2019-02-26T05:25:50.253Z,102445.29
2019-02-26T05:28:19.822Z,102443.09
2019-02-26T05:30:51.297Z,102451.67
2019-02-26T05:33:21.636Z,102445.20
2019-02-26T05:35:52.029Z,102436.62
2019-02-26T05:38:23.920Z,102436.22
2019-02-26T05:40:54.047Z,102425.57
2019-02-26T05:43:26.444Z,102427.52
2019-02-26T05:45:59.924Z,102422.45
2019-02-26T05:48:26.785Z,102418.59
2019-02-26T05:50:57.530Z,102415.25
2019-02-26T05:53:27.670Z,102417.16
2019-02-26T05:55:57.294Z,102425.94
2019-02-26T05:58:26.897Z,102442.52
2019-02-26T06:00:56.452Z,102436.25
2019-02-26T06:03:26.055Z,102436.34
2019-02-26T06:05:57.817Z,102448.80
2019-02-26T06:08:32.317Z,102462.95
2019-02-26T06:10:58.410Z,102470.22
2019-02-26T06:13:29.136Z,102471.52
2019-02-26T06:16:02.170Z,102464.14
2019-02-26T06:18:30.629Z,102468.92
2019-02-26T06:21:01.222Z,102474.70
2019-02-26T06:23:33.806Z,102464.59
2019-02-26T06:26:05.198Z,102460.20
2019-02-26T06:28:38.035Z,102463.97
2019-02-26T06:31:05.041Z,102459.64
2019-02-26T06:33:36.599Z,102455.62
2019-02-26T06:36:06.441Z,102451.34
2019-02-26T06:38:36.121Z,102453.51
2019-02-26T06:41:05.672Z,102456.20
2019-02-26T06:43:37.544Z,102449.27
2019-02-26T06:46:09.246Z,102444.20
2019-02-26T06:48:37.813Z,102436.41
2019-02-26T06:51:07.395Z,102445.59
2019-02-26T06:53:36.939Z,102449.03
2019-02-26T06:56:06.516Z,102433.70
2019-02-26T06:58:37.963Z,102444.09
2019-02-26T07:01:09.410Z,102445.77
2019-02-26T07:03:40.874Z,102438.78
2019-02-26T07:06:10.194Z,102438.75
2019-02-26T07:08:39.759Z,102443.70
2019-02-26T07:11:09.346Z,102442.38
2019-02-26T07:13:41.027Z,102440.66
2019-02-26T07:16:10.317Z,102429.52
2019-02-26T07:18:39.956Z,102441.60
2019-02-26T07:21:09.511Z,102439.00
2019-02-26T07:23:40.050Z,102444.69
2019-02-26T07:26:11.702Z,102449.16
2019-02-26T07:28:41.585Z,102452.02
2019-02-26T07:31:12.290Z,102465.32
2019-02-26T07:33:41.842Z,102468.95
2019-02-26T07:36:11.429Z,102458.56
2019-02-26T07:38:42.324Z,102465.18
2019-02-26T07:41:12.448Z,102451.89
2019-02-26T07:43:46.335Z,102454.73
2019-02-26T07:46:14.598Z,102455.62
2019-02-26T07:48:46.150Z,102453.77
2019-02-26T07:51:15.976Z,102460.39
2019-02-26T07:53:50.648Z,102467.45
2019-02-26T07:56:16.853Z,102473.42
2019-02-26T07:58:46.402Z,102471.20
2019-02-26T08:01:15.986Z,102483.00
2019-02-26T08:03:46.994Z,102495.22
2019-02-26T08:06:16.882Z,102488.73
2019-02-26T08:08:48.876Z,102493.63
2019-02-26T08:11:18.083Z,102493.42
2019-02-26T08:13:49.470Z,102486.95
2019-02-26T08:16:20.658Z,102485.30
2019-02-26T08:18:52.185Z,102478.03
2019-02-26T08:21:23.075Z,102473.60
2019-02-26T08:23:53.156Z,102474.73
2019-02-26T08:26:24.424Z,102473.20
2019-02-26T08:29:13.294Z,102469.42
2019-02-26T08:31:46.610Z,102482.69
2019-02-26T08:34:15.725Z,102481.93
2019-02-26T08:36:46.824Z,102482.50
2019-02-26T08:39:16.517Z,102483.86
2019-02-26T08:42:08.924Z,102477.89
2019-02-26T08:44:38.554Z,102475.34
2019-02-26T08:47:11.193Z,102472.30
2019-02-26T08:49:40.728Z,102479.27
2019-02-26T08:52:10.616Z,102471.53
2019-02-26T08:54:40.126Z,102477.64
2019-02-26T08:57:11.917Z,102476.66
2019-02-26T08:59:42.237Z,102467.97
2019-02-26T09:02:12.820Z,102456.24
2019-02-26T09:04:44.523Z,102458.92
2019-02-26T09:07:15.931Z,102466.55
2019-02-26T09:09:47.563Z,102455.15
2019-02-26T09:12:17.533Z,102455.43
2019-02-26T09:14:49.617Z,102458.22
2019-02-26T09:17:23.051Z,102453.17
2019-02-26T09:19:52.622Z,102459.94
2019-02-26T09:22:23.604Z,102462.19
2019-02-26T09:24:54.469Z,102469.80
2019-02-26T09:27:26.713Z,102471.81
2019-02-26T09:29:55.901Z,102475.88
2019-02-26T09:32:25.443Z,102476.92
2019-02-26T09:34:56.961Z,102479.06
2019-02-26T09:37:26.601Z,102474.41
2019-02-26T09:39:57.405Z,102488.55
2019-02-26T09:42:28.327Z,102485.84
2019-02-26T09:45:00.198Z,102492.09
2019-02-26T09:47:32.886Z,102493.52
2019-02-26T09:50:01.207Z,102499.27
2019-02-26T09:52:32.653Z,102504.45
2019-02-26T09:55:01.999Z,102507.81
2019-02-26T09:57:31.542Z,102504.67
2019-02-26T10:00:03.350Z,102514.20
2019-02-26T10:02:32.316Z,102507.23
2019-02-26T10:05:01.867Z,102519.66
2019-02-26T10:07:35.533Z,102514.47
2019-02-26T10:10:04.018Z,102520.61
2019-02-26T10:12:34.762Z,102523.59
2019-02-26T10:15:15.675Z,102518.98
2019-02-26T10:17:45.567Z,102528.80
2019-02-26T10:20:31.164Z,102522.09
2019-02-26T10:23:01.255Z,102527.77
2019-02-26T10:25:31.954Z,102525.12
2019-02-26T10:28:05.826Z,102520.29
2019-02-26T10:30:35.992Z,102519.34
2019-02-26T10:33:07.169Z,102511.45
2019-02-26T10:35:38.688Z,102511.19
2019-02-26T10:38:10.784Z,102506.69
2019-02-26T10:40:50.658Z,102524.45
2019-02-26T10:43:11.035Z,102539.38
2019-02-26T10:45:42.381Z,102545.23
2019-02-26T10:48:13.754Z,102539.23
2019-02-26T10:50:46.985Z,102524.13
2019-02-26T10:53:18.887Z,102520.80
2019-02-26T10:55:46.154Z,102521.41
2019-02-26T10:58:15.674Z,102520.19
2019-02-26T11:00:46.513Z,102520.03
2019-02-26T11:03:17.419Z,102522.45
2019-02-26T11:05:48.761Z,102522.96
2019-02-26T11:08:20.614Z,102522.45
2019-02-26T11:10:52.188Z,102521.64
2019-02-26T11:13:24.920Z,102514.23
2019-02-26T11:15:53.967Z,102521.44
2019-02-26T11:18:23.900Z,102521.70
2019-02-26T11:20:56.117Z,102521.27
2019-02-26T11:23:30.907Z,102517.16
2019-02-26T11:25:56.453Z,102504.73
2019-02-26T11:28:29.727Z,102491.67
2019-02-26T11:30:57.327Z,102484.68
2019-02-26T11:33:26.847Z,102474.63
2019-02-26T11:35:56.445Z,102467.59
2019-02-26T11:38:26.038Z,102460.05
2019-02-26T11:40:55.568Z,102456.83
2019-02-26T11:43:27.123Z,102461.96
2019-02-26T11:45:58.861Z,102457.94
2019-02-26T11:48:28.939Z,102449.97
2019-02-26T11:51:01.080Z,102450.66
2019-02-26T11:53:30.403Z,102460.41
2019-02-26T11:56:01.963Z,102462.05
2019-02-26T11:58:31.591Z,102464.48
2019-02-26T12:01:01.627Z,102457.59
2019-02-26T12:03:34.105Z,102443.08
2019-02-26T12:06:02.414Z,102449.89
2019-02-26T12:08:32.145Z,102464.86
2019-02-26T12:11:03.965Z,102460.48
2019-02-26T12:13:32.940Z,102472.91
2019-02-26T12:16:02.587Z,102464.16
2019-02-26T12:18:34.080Z,102456.12
2019-02-26T12:21:05.382Z,102455.66
2019-02-26T12:23:36.751Z,102454.56
2019-02-26T12:26:05.947Z,102446.40
2019-02-26T12:28:37.665Z,102440.05
2019-02-26T12:31:09.847Z,102448.27
2019-02-26T12:33:38.076Z,102450.36
2019-02-26T12:36:09.771Z,102448.92
2019-02-26T12:38:39.055Z,102440.41
2019-02-26T12:41:09.646Z,102428.38
2019-02-26T12:43:43.074Z,102433.16
2019-02-26T12:46:11.337Z,102431.42
2019-02-26T12:48:44.382Z,102427.05
2019-02-26T12:51:12.119Z,102422.19
2019-02-26T12:53:49.061Z,102409.52
2019-02-26T12:56:16.011Z,102402.23
2019-02-26T12:58:48.277Z,102399.97
2019-02-26T13:01:16.896Z,102397.58
2019-02-26T13:03:51.171Z,102392.09
2019-02-26T13:06:18.660Z,102402.91
2019-02-26T13:08:50.549Z,102394.48
2019-02-26T13:11:24.256Z,102377.83
2019-02-26T13:13:53.468Z,102375.78
2019-02-26T13:16:22.891Z,102363.06
2019-02-26T13:18:56.683Z,102371.30
2019-02-26T13:21:23.763Z,102357.61
2019-02-26T13:23:58.429Z,102374.03
2019-02-26T13:26:24.570Z,102368.16
2019-02-26T13:28:56.052Z,102372.44
2019-02-26T13:31:25.495Z,102364.91
2019-02-26T13:33:55.108Z,102356.09
2019-02-26T13:36:24.615Z,102350.30
2019-02-26T13:38:54.164Z,102351.53
2019-02-26T13:41:30.093Z,102357.20
2019-02-26T13:43:54.944Z,102367.28
2019-02-26T13:46:24.757Z,102369.53
2019-02-26T13:48:54.281Z,102371.27
2019-02-26T13:51:23.803Z,102371.22
2019-02-26T13:53:53.346Z,102372.20
2019-02-26T13:56:22.891Z,102376.09
2019-02-26T13:58:52.420Z,102377.33
2019-02-26T14:01:22.421Z,102370.67
2019-02-26T14:03:51.955Z,102375.20
2019-02-26T14:06:21.478Z,102372.45
2019-02-26T14:08:51.396Z,102373.25
2019-02-26T14:11:21.322Z,102368.38
2019-02-26T14:13:50.886Z,102362.71
2019-02-26T14:16:20.452Z,102358.22
2019-02-26T14:18:49.985Z,102358.52
2019-02-26T14:21:19.536Z,102350.04
2019-02-26T14:23:49.082Z,102352.03
2019-02-26T14:26:18.602Z,102348.88
2019-02-26T14:28:48.117Z,102352.73
2019-02-26T14:31:17.861Z,102354.89
2019-02-26T14:33:47.478Z,102354.89
2019-02-26T14:36:17.011Z,102357.89
2019-02-26T14:38:46.550Z,102363.18
2019-02-26T14:41:16.065Z,102368.47
2019-02-26T14:43:45.836Z,102374.14
2019-02-26T14:46:15.462Z,102375.80
2019-02-26T14:48:44.986Z,102376.64
2019-02-26T14:51:14.506Z,102377.99
2019-02-26T14:53:44.041Z,102367.92
2019-02-26T14:56:13.668Z,102376.26
2019-02-26T14:58:43.195Z,102373.59
2019-02-26T15:01:13.061Z,102378.80
2019-02-26T15:03:42.579Z,102373.92
2019-02-26T15:06:12.381Z,102377.80
2019-02-26T15:08:42.161Z,102383.80
2019-02-26T15:11:11.752Z,102375.70
2019-02-26T15:13:41.339Z,102372.00
2019-02-26T15:16:11.342Z,102373.06
2019-02-26T15:18:40.860Z,102380.03
2019-02-26T15:21:10.374Z,102377.01
2019-02-26T15:23:39.925Z,102379.49
2019-02-26T15:26:09.443Z,102371.95
2019-02-26T15:28:38.960Z,102385.83
2019-02-26T15:31:08.716Z,102396.75
2019-02-26T15:33:38.242Z,102397.30
2019-02-26T15:36:07.753Z,102397.13
2019-02-26T15:38:37.442Z,102397.13
2019-02-26T15:41:07.144Z,102399.02
2019-02-26T15:43:36.667Z,102393.13
2019-02-26T15:46:06.199Z,102392.56
2019-02-26T15:48:36.460Z,102392.80
2019-02-26T15:51:14.117Z,102393.42
2019-02-26T15:53:38.243Z,102382.16
2019-02-26T15:56:07.834Z,102392.38
2019-02-26T15:58:37.359Z,102382.48
2019-02-26T16:01:10.237Z,102391.28
2019-02-26T16:03:39.761Z,102395.63
2019-02-26T16:06:09.287Z,102400.34
2019-02-26T16:08:41.274Z,102393.70
2019-02-26T16:11:10.253Z,102389.72
2019-02-26T16:13:39.771Z,102380.42
2019-02-26T16:16:09.322Z,102382.94
2019-02-26T16:18:38.848Z,102384.15
2019-02-26T16:21:08.384Z,102384.94
2019-02-26T16:23:38.036Z,102380.01
2019-02-26T16:26:08.092Z,102385.65
2019-02-26T16:28:38.455Z,102383.23
2019-02-26T16:31:08.017Z,102393.55
2019-02-26T16:33:37.545Z,102393.27
2019-02-26T16:36:07.194Z,102393.88
2019-02-26T16:38:36.837Z,102401.08
2019-02-26T16:41:06.691Z,102404.72
2019-02-26T16:43:36.222Z,102396.98
2019-02-26T16:46:08.326Z,102393.09
2019-02-26T16:48:37.180Z,102392.66
2019-02-26T16:51:06.884Z,102400.05
2019-02-26T16:53:36.838Z,102402.22
2019-02-26T16:56:07.821Z,102397.44
2019-02-26T16:58:37.482Z,102401.12
2019-02-26T17:01:07.793Z,102391.47
2019-02-26T17:03:37.394Z,102394.56
2019-02-26T17:06:07.002Z,102401.59
2019-02-26T17:08:36.558Z,102399.87
2019-02-26T17:11:06.074Z,102399.81
2019-02-26T17:13:35.981Z,102398.00
2019-02-26T17:16:05.855Z,102394.67
2019-02-26T17:18:35.398Z,102390.84
2019-02-26T17:21:04.919Z,102384.70
2019-02-26T17:23:34.474Z,102390.36
2019-02-26T17:26:04.375Z,102386.09
2019-02-26T17:28:34.090Z,102378.48
2019-02-26T17:31:03.645Z,102379.57
2019-02-26T17:33:33.190Z,102383.90
2019-02-26T17:36:02.719Z,102386.98
2019-02-26T17:38:32.270Z,102388.39
2019-02-26T17:41:01.796Z,102390.71
2019-02-26T17:43:31.318Z,102385.20
2019-02-26T17:46:00.876Z,102379.28
2019-02-26T17:48:31.095Z,102380.26
2019-02-26T17:51:01.191Z,102375.93
2019-02-26T17:53:31.183Z,102374.56
2019-02-26T17:56:00.715Z,102379.63
2019-02-26T17:58:30.279Z,102385.84
2019-02-26T18:00:59.932Z,102384.19
2019-02-26T18:03:29.465Z,102389.88
2019-02-26T18:05:58.983Z,102388.38
2019-02-26T18:08:28.698Z,102390.89
2019-02-26T18:10:58.220Z,102395.13
2019-02-26T18:13:27.752Z,102400.66
2019-02-26T18:15:59.142Z,102404.54
2019-02-26T18:18:28.531Z,102411.91
2019-02-26T18:20:58.061Z,102407.98
2019-02-26T18:23:27.608Z,102418.09
2019-02-26T18:25:57.153Z,102411.62
2019-02-26T18:28:26.675Z,102412.61
2019-02-26T18:30:56.639Z,102415.33
2019-02-26T18:33:26.147Z,102423.71
2019-02-26T18:35:55.668Z,102423.08
2019-02-26T18:38:25.215Z,102425.39
2019-02-26T18:40:54.754Z,102425.69
2019-02-26T18:43:24.305Z,102428.06
2019-02-26T18:45:54.309Z,102424.27
2019-02-26T18:48:23.874Z,102436.70
2019-02-26T18:50:53.396Z,102436.06
2019-02-26T18:53:23.118Z,102433.30
2019-02-26T18:55:52.644Z,102441.03
2019-02-26T18:58:22.189Z,102434.86
2019-02-26T19:00:51.713Z,102440.63
2019-02-26T19:03:21.229Z,102434.53
2019-02-26T19:05:53.818Z,102439.21
2019-02-26T19:08:22.035Z,102439.54
2019-02-26T19:10:53.330Z,102438.58
2019-02-26T19:13:22.808Z,102438.42
2019-02-26T19:15:52.343Z,102439.72
2019-02-26T19:18:21.875Z,102427.67
2019-02-26T19:20:51.431Z,102430.77
2019-02-26T19:23:20.973Z,102434.52
2019-02-26T19:25:50.564Z,102433.06
2019-02-26T19:28:20.084Z,102427.70
2019-02-26T19:30:49.789Z,102427.91
2019-02-26T19:33:21.576Z,102428.09
2019-02-26T19:35:50.744Z,102443.39
2019-02-26T19:38:20.764Z,102443.27
2019-02-26T19:41:00.269Z,102441.58
2019-02-26T19:43:29.824Z,102440.86
2019-02-26T19:45:59.345Z,102440.13
2019-02-26T19:48:30.633Z,102437.45
2019-02-26T19:51:00.380Z,102444.13
2019-02-26T19:53:29.900Z,102435.70
2019-02-26T19:55:59.427Z,102433.76
2019-02-26T19:58:28.992Z,102427.91
2019-02-26T20:00:58.541Z,102424.66
2019-02-26T20:03:39.245Z,102424.70
2019-02-26T20:05:59.771Z,102427.38
2019-02-26T20:08:30.989Z,102412.95
2019-02-26T20:11:00.546Z,102417.75
2019-02-26T20:13:31.712Z,102408.56
2019-02-26T20:16:01.353Z,102416.13
2019-02-26T20:18:31.251Z,102413.28
2019-02-26T20:21:01.052Z,102418.75
2019-02-26T20:23:30.573Z,102423.53
2019-02-26T20:26:00.212Z,102412.44
2019-02-26T20:28:29.732Z,102409.10
2019-02-26T20:30:59.266Z,102404.79
2019-02-26T20:33:28.800Z,102409.20
2019-02-26T20:35:58.597Z,102402.69
2019-02-26T20:38:32.328Z,102397.27
2019-02-26T20:40:59.899Z,102399.61
2019-02-26T20:43:29.432Z,102404.23
2019-02-26T20:45:58.947Z,102403.13
2019-02-26T20:48:28.493Z,102409.53
2019-02-26T20:50:58.024Z,102405.78
2019-02-26T20:53:27.554Z,102412.50
2019-02-26T20:55:57.712Z,102402.30
2019-02-26T20:58:27.807Z,102399.03
2019-02-26T21:00:58.800Z,102404.86
2019-02-26T21:03:29.027Z,102408.58
2019-02-26T21:05:58.552Z,102400.22
2019-02-26T21:08:30.761Z,102410.59
2019-02-26T21:10:59.350Z,102417.52
2019-02-26T21:13:28.881Z,102408.35
2019-02-26T21:15:58.395Z,102414.67
2019-02-26T21:18:30.240Z,102414.98
2019-02-26T21:20:59.302Z,102414.89
2019-02-26T21:23:28.821Z,102404.42
2019-02-26T21:25:58.735Z,102401.83
2019-02-26T21:28:28.266Z,102402.14
2019-02-26T21:30:57.785Z,102403.04
2019-02-26T21:33:30.618Z,102403.04
2019-02-26T21:35:58.575Z,102403.84
2019-02-26T21:38:28.097Z,102396.81
2019-02-26T21:40:57.639Z,102397.05
2019-02-26T21:43:27.167Z,102399.37
2019-02-26T21:45:56.710Z,102401.61
2019-02-26T21:48:26.684Z,102396.19
2019-02-26T21:50:56.183Z,102390.24
2019-02-26T21:53:25.713Z,102397.05
2019-02-26T21:55:55.716Z,102396.95
2019-02-26T21:58:26.841Z,102397.30
2019-02-26T22:00:56.571Z,102396.31
2019-02-26T22:03:26.471Z,102390.55
2019-02-26T22:06:04.867Z,102387.77
2019-02-26T22:08:27.250Z,102391.17
2019-02-26T22:10:56.788Z,102392.78
2019-02-26T22:13:29.100Z,102396.09
2019-02-26T22:15:57.552Z,102395.69
2019-02-26T22:18:31.147Z,102402.08
2019-02-26T22:20:58.791Z,102396.74
2019-02-26T22:23:29.389Z,102395.17
2019-02-26T22:25:59.198Z,102391.19
2019-02-26T22:28:28.717Z,102392.30
2019-02-26T22:30:58.228Z,102389.22
2019-02-26T22:33:28.654Z,102388.67
2019-02-26T22:35:59.843Z,102394.17
2019-02-26T22:38:29.570Z,102384.51
2019-02-26T22:40:59.942Z,102384.41
2019-02-26T22:43:30.603Z,102389.42
2019-02-26T22:46:01.151Z,102383.65
2019-02-26T22:48:31.404Z,102388.28
2019-02-26T22:51:00.958Z,102377.23
2019-02-26T22:53:30.462Z,102373.94
2019-02-26T22:56:00.007Z,102373.44
2019-02-26T22:58:29.525Z,102373.34
2019-02-26T23:01:18.075Z,102366.38
2019-02-26T23:03:47.688Z,102368.47
2019-02-26T23:06:17.383Z,102372.61
2019-02-26T23:08:46.999Z,102369.43
2019-02-26T23:11:16.841Z,102367.95
2019-02-26T23:13:46.367Z,102366.47
2019-02-26T23:16:18.462Z,102362.80
2019-02-26T23:18:47.528Z,102361.90
2019-02-26T23:21:17.750Z,102357.86
2019-02-26T23:23:47.549Z,102358.66
2019-02-26T23:26:17.151Z,102355.39
2019-02-26T23:28:46.907Z,102351.11
2019-02-26T23:31:17.672Z,102346.33
2019-02-26T23:33:48.457Z,102347.53
2019-02-26T23:36:18.625Z,102347.92
2019-02-26T23:38:50.252Z,102350.12
2019-02-26T23:41:19.787Z,102359.98
2019-02-26T23:43:49.324Z,102358.20
2019-02-26T23:46:19.005Z,102355.02
2019-02-26T23:48:48.527Z,102352.18
2019-02-26T23:51:20.999Z,102340.73
2019-02-26T23:53:49.569Z,102339.25
2019-02-26T23:56:19.825Z,102340.36
2019-02-26T23:58:49.491Z,102336.23
